sensor_id;sensor_type;location;lat;lon;timestamp;P1;durP1;ratioP1;P2;durP2;ratioP2
49416;SDS011;35290;39.550;8.786;2022-11-20T00:00:24;16.17;;;3.28;;
49416;SDS011;35290;39.550;8.786;2022-11-20T00:02:50;14.82;;;3.50;;
49416;SDS011;35290;39.550;8.786;2022-11-20T00:05:15;10.27;;;2.15;;
49416;SDS011;35290;39.550;8.786;2022-11-20T00:07:41;14.25;;;2.67;;
49416;SDS011;35290;39.550;8.786;2022-11-20T00:10:06;8.60;;;1.48;;
49416;SDS011;35290;39.550;8.786;2022-11-20T00:12:32;7.82;;;1.63;;
49416;SDS011;35290;39.550;8.786;2022-11-20T00:14:58;9.85;;;1.55;;
49416;SDS011;35290;39.550;8.786;2022-11-20T00:17:24;9.73;;;1.85;;
49416;SDS011;35290;39.550;8.786;2022-11-20T00:19:49;10.75;;;1.80;;
49416;SDS011;35290;39.550;8.786;2022-11-20T00:22:15;7.28;;;1.60;;
49416;SDS011;35290;39.550;8.786;2022-11-20T00:24:40;7.15;;;1.63;;
49416;SDS011;35290;39.550;8.786;2022-11-20T00:27:06;7.88;;;1.55;;
49416;SDS011;35290;39.550;8.786;2022-11-20T00:29:31;12.10;;;1.55;;
49416;SDS011;35290;39.550;8.786;2022-11-20T00:31:57;7.22;;;1.50;;
49416;SDS011;35290;39.550;8.786;2022-11-20T00:34:22;8.23;;;2.40;;
49416;SDS011;35290;39.550;8.786;2022-11-20T00:36:47;9.00;;;2.03;;
49416;SDS011;35290;39.550;8.786;2022-11-20T00:39:13;11.65;;;2.30;;
49416;SDS011;35290;39.550;8.786;2022-11-20T00:41:38;14.23;;;2.55;;
49416;SDS011;35290;39.550;8.786;2022-11-20T00:44:04;10.25;;;2.10;;
49416;SDS011;35290;39.550;8.786;2022-11-20T00:46:29;11.68;;;2.17;;
49416;SDS011;35290;39.550;8.786;2022-11-20T00:48:55;16.95;;;2.80;;
49416;SDS011;35290;39.550;8.786;2022-11-20T00:51:21;11.20;;;3.25;;
49416;SDS011;35290;39.550;8.786;2022-11-20T00:53:48;12.57;;;2.85;;
49416;SDS011;35290;39.550;8.786;2022-11-20T00:56:14;12.27;;;2.88;;
49416;SDS011;35290;39.550;8.786;2022-11-20T00:58:42;13.98;;;3.20;;
49416;SDS011;35290;39.550;8.786;2022-11-20T01:01:11;12.98;;;3.60;;
49416;SDS011;35290;39.550;8.786;2022-11-20T01:03:39;11.18;;;3.40;;
49416;SDS011;35290;39.550;8.786;2022-11-20T01:06:13;13.25;;;2.80;;
49416;SDS011;35290;39.550;8.786;2022-11-20T01:08:40;15.25;;;3.53;;
49416;SDS011;35290;39.550;8.786;2022-11-20T01:11:28;17.40;;;4.63;;
49416;SDS011;35290;39.550;8.786;2022-11-20T01:13:53;7.93;;;3.35;;
49416;SDS011;35290;39.550;8.786;2022-11-20T01:16:27;15.20;;;4.18;;
49416;SDS011;35290;39.550;8.786;2022-11-20T01:18:55;12.23;;;3.67;;
49416;SDS011;35290;39.550;8.786;2022-11-20T01:21:22;20.95;;;4.55;;
49416;SDS011;35290;39.550;8.786;2022-11-20T01:23:50;12.90;;;4.28;;
49416;SDS011;35290;39.550;8.786;2022-11-20T01:26:17;14.88;;;4.07;;
49416;SDS011;35290;39.550;8.786;2022-11-20T01:28:44;12.75;;;3.67;;
49416;SDS011;35290;39.550;8.786;2022-11-20T01:31:14;14.65;;;3.53;;
49416;SDS011;35290;39.550;8.786;2022-11-20T01:33:44;10.63;;;3.00;;
49416;SDS011;35290;39.550;8.786;2022-11-20T01:36:11;15.32;;;3.70;;
49416;SDS011;35290;39.550;8.786;2022-11-20T01:38:37;12.38;;;3.80;;
49416;SDS011;35290;39.550;8.786;2022-11-20T01:41:03;16.30;;;3.75;;
49416;SDS011;35290;39.550;8.786;2022-11-20T01:43:29;14.45;;;3.35;;
49416;SDS011;35290;39.550;8.786;2022-11-20T01:48:20;10.98;;;2.90;;
49416;SDS011;35290;39.550;8.786;2022-11-20T01:50:47;8.77;;;2.55;;
49416;SDS011;35290;39.550;8.786;2022-11-20T01:53:14;11.48;;;3.30;;
49416;SDS011;35290;39.550;8.786;2022-11-20T01:55:47;12.63;;;3.47;;
49416;SDS011;35290;39.550;8.786;2022-11-20T01:58:15;14.60;;;3.70;;
49416;SDS011;35290;39.550;8.786;2022-11-20T02:00:42;11.40;;;3.70;;
49416;SDS011;35290;39.550;8.786;2022-11-20T02:03:11;12.18;;;3.60;;
49416;SDS011;35290;39.550;8.786;2022-11-20T02:05:46;9.52;;;3.40;;
49416;SDS011;35290;39.550;8.786;2022-11-20T02:08:14;12.05;;;3.08;;
49416;SDS011;35290;39.550;8.786;2022-11-20T02:10:39;11.60;;;3.03;;
49416;SDS011;35290;39.550;8.786;2022-11-20T02:13:05;14.43;;;3.05;;
49416;SDS011;35290;39.550;8.786;2022-11-20T02:15:49;10.40;;;2.55;;
49416;SDS011;35290;39.550;8.786;2022-11-20T02:18:16;13.63;;;2.92;;
49416;SDS011;35290;39.550;8.786;2022-11-20T02:20:43;9.13;;;2.33;;
49416;SDS011;35290;39.550;8.786;2022-11-20T02:23:16;10.25;;;2.47;;
49416;SDS011;35290;39.550;8.786;2022-11-20T02:25:49;10.02;;;3.40;;
49416;SDS011;35290;39.550;8.786;2022-11-20T02:28:14;13.57;;;3.15;;
49416;SDS011;35290;39.550;8.786;2022-11-20T02:30:40;10.23;;;2.78;;
49416;SDS011;35290;39.550;8.786;2022-11-20T02:33:05;12.35;;;2.25;;
49416;SDS011;35290;39.550;8.786;2022-11-20T02:37:57;12.48;;;2.03;;
49416;SDS011;35290;39.550;8.786;2022-11-20T02:40:24;14.68;;;2.30;;
49416;SDS011;35290;39.550;8.786;2022-11-20T02:42:53;13.82;;;2.10;;
49416;SDS011;35290;39.550;8.786;2022-11-20T02:45:19;14.45;;;2.40;;
49416;SDS011;35290;39.550;8.786;2022-11-20T02:47:44;13.73;;;2.45;;
49416;SDS011;35290;39.550;8.786;2022-11-20T02:50:10;10.38;;;2.30;;
49416;SDS011;35290;39.550;8.786;2022-11-20T02:52:36;11.02;;;1.83;;
49416;SDS011;35290;39.550;8.786;2022-11-20T02:55:02;12.02;;;2.35;;
49416;SDS011;35290;39.550;8.786;2022-11-20T02:57:28;10.70;;;2.22;;
49416;SDS011;35290;39.550;8.786;2022-11-20T02:59:53;8.93;;;2.10;;
49416;SDS011;35290;39.550;8.786;2022-11-20T03:02:19;14.75;;;2.30;;
49416;SDS011;35290;39.550;8.786;2022-11-20T03:04:45;17.48;;;2.58;;
49416;SDS011;35290;39.550;8.786;2022-11-20T03:07:11;10.57;;;1.90;;
49416;SDS011;35290;39.550;8.786;2022-11-20T03:09:36;15.45;;;2.40;;
49416;SDS011;35290;39.550;8.786;2022-11-20T03:12:02;14.95;;;2.42;;
49416;SDS011;35290;39.550;8.786;2022-11-20T03:14:27;11.55;;;1.92;;
49416;SDS011;35290;39.550;8.786;2022-11-20T03:16:53;17.10;;;2.33;;
49416;SDS011;35290;39.550;8.786;2022-11-20T03:19:18;13.75;;;2.47;;
49416;SDS011;35290;39.550;8.786;2022-11-20T03:21:44;14.02;;;2.50;;
49416;SDS011;35290;39.550;8.786;2022-11-20T03:24:09;19.48;;;2.58;;
49416;SDS011;35290;39.550;8.786;2022-11-20T03:26:35;13.50;;;2.67;;
49416;SDS011;35290;39.550;8.786;2022-11-20T03:29:01;15.60;;;2.40;;
49416;SDS011;35290;39.550;8.786;2022-11-20T03:31:30;13.57;;;2.42;;
49416;SDS011;35290;39.550;8.786;2022-11-20T03:33:57;13.18;;;2.60;;
49416;SDS011;35290;39.550;8.786;2022-11-20T03:36:23;17.35;;;2.63;;
49416;SDS011;35290;39.550;8.786;2022-11-20T03:38:49;9.88;;;1.95;;
49416;SDS011;35290;39.550;8.786;2022-11-20T03:41:19;16.90;;;2.45;;
49416;SDS011;35290;39.550;8.786;2022-11-20T03:43:47;15.50;;;2.03;;
49416;SDS011;35290;39.550;8.786;2022-11-20T03:46:16;15.32;;;2.10;;
49416;SDS011;35290;39.550;8.786;2022-11-20T03:48:42;17.83;;;2.38;;
49416;SDS011;35290;39.550;8.786;2022-11-20T03:51:14;17.50;;;2.35;;
49416;SDS011;35290;39.550;8.786;2022-11-20T03:53:41;16.23;;;2.65;;
49416;SDS011;35290;39.550;8.786;2022-11-20T03:56:08;16.02;;;2.47;;
49416;SDS011;35290;39.550;8.786;2022-11-20T03:58:34;13.68;;;2.22;;
49416;SDS011;35290;39.550;8.786;2022-11-20T04:01:07;12.45;;;2.00;;
49416;SDS011;35290;39.550;8.786;2022-11-20T04:03:34;15.52;;;2.30;;
49416;SDS011;35290;39.550;8.786;2022-11-20T04:06:01;14.20;;;3.35;;
49416;SDS011;35290;39.550;8.786;2022-11-20T04:08:30;15.60;;;2.28;;
49416;SDS011;35290;39.550;8.786;2022-11-20T04:10:56;15.10;;;2.45;;
49416;SDS011;35290;39.550;8.786;2022-11-20T04:13:21;14.98;;;2.20;;
49416;SDS011;35290;39.550;8.786;2022-11-20T04:15:47;12.52;;;2.08;;
49416;SDS011;35290;39.550;8.786;2022-11-20T04:18:12;15.38;;;2.10;;
49416;SDS011;35290;39.550;8.786;2022-11-20T04:20:38;12.35;;;1.75;;
49416;SDS011;35290;39.550;8.786;2022-11-20T04:23:03;16.38;;;2.15;;
49416;SDS011;35290;39.550;8.786;2022-11-20T04:25:29;18.63;;;1.95;;
49416;SDS011;35290;39.550;8.786;2022-11-20T04:27:54;15.65;;;2.30;;
49416;SDS011;35290;39.550;8.786;2022-11-20T04:30:20;11.50;;;1.77;;
49416;SDS011;35290;39.550;8.786;2022-11-20T04:32:45;12.85;;;2.25;;
49416;SDS011;35290;39.550;8.786;2022-11-20T04:35:11;17.17;;;2.95;;
49416;SDS011;35290;39.550;8.786;2022-11-20T04:37:36;12.88;;;2.00;;
49416;SDS011;35290;39.550;8.786;2022-11-20T04:40:02;16.50;;;2.13;;
49416;SDS011;35290;39.550;8.786;2022-11-20T04:42:27;15.77;;;2.30;;
49416;SDS011;35290;39.550;8.786;2022-11-20T04:44:56;11.73;;;1.70;;
49416;SDS011;35290;39.550;8.786;2022-11-20T04:47:22;15.65;;;2.30;;
49416;SDS011;35290;39.550;8.786;2022-11-20T04:49:48;14.88;;;2.22;;
49416;SDS011;35290;39.550;8.786;2022-11-20T04:52:13;15.35;;;2.80;;
49416;SDS011;35290;39.550;8.786;2022-11-20T04:54:39;11.80;;;2.25;;
49416;SDS011;35290;39.550;8.786;2022-11-20T04:57:04;11.07;;;2.08;;
49416;SDS011;35290;39.550;8.786;2022-11-20T04:59:30;15.13;;;2.60;;
49416;SDS011;35290;39.550;8.786;2022-11-20T05:01:55;17.88;;;2.40;;
49416;SDS011;35290;39.550;8.786;2022-11-20T05:04:21;12.88;;;2.08;;
49416;SDS011;35290;39.550;8.786;2022-11-20T05:06:46;16.98;;;2.20;;
49416;SDS011;35290;39.550;8.786;2022-11-20T05:09:12;17.75;;;2.45;;
49416;SDS011;35290;39.550;8.786;2022-11-20T05:11:38;14.48;;;2.35;;
49416;SDS011;35290;39.550;8.786;2022-11-20T05:14:03;17.92;;;2.35;;
49416;SDS011;35290;39.550;8.786;2022-11-20T05:16:29;17.23;;;2.38;;
49416;SDS011;35290;39.550;8.786;2022-11-20T05:18:54;15.07;;;2.20;;
49416;SDS011;35290;39.550;8.786;2022-11-20T05:21:21;14.52;;;2.20;;
49416;SDS011;35290;39.550;8.786;2022-11-20T05:23:46;17.45;;;2.38;;
49416;SDS011;35290;39.550;8.786;2022-11-20T05:26:13;10.00;;;2.03;;
49416;SDS011;35290;39.550;8.786;2022-11-20T05:28:49;14.68;;;2.20;;
49416;SDS011;35290;39.550;8.786;2022-11-20T05:31:19;15.95;;;2.50;;
49416;SDS011;35290;39.550;8.786;2022-11-20T05:33:46;11.85;;;2.22;;
49416;SDS011;35290;39.550;8.786;2022-11-20T05:36:12;12.32;;;2.45;;
49416;SDS011;35290;39.550;8.786;2022-11-20T05:38:38;14.77;;;2.08;;
49416;SDS011;35290;39.550;8.786;2022-11-20T05:43:31;18.50;;;2.65;;
49416;SDS011;35290;39.550;8.786;2022-11-20T05:45:58;14.90;;;2.20;;
49416;SDS011;35290;39.550;8.786;2022-11-20T05:48:24;15.70;;;1.77;;
49416;SDS011;35290;39.550;8.786;2022-11-20T05:50:49;11.50;;;1.95;;
49416;SDS011;35290;39.550;8.786;2022-11-20T05:53:15;11.80;;;1.85;;
49416;SDS011;35290;39.550;8.786;2022-11-20T05:55:40;15.35;;;2.58;;
49416;SDS011;35290;39.550;8.786;2022-11-20T05:58:06;14.88;;;2.42;;
49416;SDS011;35290;39.550;8.786;2022-11-20T06:00:31;13.68;;;2.15;;
49416;SDS011;35290;39.550;8.786;2022-11-20T06:02:57;20.60;;;2.40;;
49416;SDS011;35290;39.550;8.786;2022-11-20T06:05:22;13.68;;;2.75;;
49416;SDS011;35290;39.550;8.786;2022-11-20T06:07:47;16.73;;;2.35;;
49416;SDS011;35290;39.550;8.786;2022-11-20T06:10:13;15.68;;;2.97;;
49416;SDS011;35290;39.550;8.786;2022-11-20T06:12:38;16.63;;;3.15;;
49416;SDS011;35290;39.550;8.786;2022-11-20T06:15:04;16.27;;;3.35;;
49416;SDS011;35290;39.550;8.786;2022-11-20T06:17:30;20.65;;;4.78;;
49416;SDS011;35290;39.550;8.786;2022-11-20T06:19:56;20.17;;;4.88;;
49416;SDS011;35290;39.550;8.786;2022-11-20T06:22:22;13.63;;;2.67;;
49416;SDS011;35290;39.550;8.786;2022-11-20T06:24:47;15.65;;;2.70;;
49416;SDS011;35290;39.550;8.786;2022-11-20T06:27:12;23.08;;;3.45;;
49416;SDS011;35290;39.550;8.786;2022-11-20T06:29:38;13.95;;;2.20;;
49416;SDS011;35290;39.550;8.786;2022-11-20T06:32:03;15.77;;;3.17;;
49416;SDS011;35290;39.550;8.786;2022-11-20T06:34:29;17.63;;;2.33;;
49416;SDS011;35290;39.550;8.786;2022-11-20T06:36:54;14.93;;;1.92;;
49416;SDS011;35290;39.550;8.786;2022-11-20T06:39:20;18.75;;;3.17;;
49416;SDS011;35290;39.550;8.786;2022-11-20T06:41:45;18.40;;;3.22;;
49416;SDS011;35290;39.550;8.786;2022-11-20T06:44:11;14.60;;;3.67;;
49416;SDS011;35290;39.550;8.786;2022-11-20T06:46:36;17.38;;;5.05;;
49416;SDS011;35290;39.550;8.786;2022-11-20T06:49:02;15.27;;;4.88;;
49416;SDS011;35290;39.550;8.786;2022-11-20T06:51:27;18.58;;;5.65;;
49416;SDS011;35290;39.550;8.786;2022-11-20T06:53:53;22.27;;;7.60;;
49416;SDS011;35290;39.550;8.786;2022-11-20T06:56:18;15.63;;;6.68;;
49416;SDS011;35290;39.550;8.786;2022-11-20T06:58:44;32.35;;;14.27;;
49416;SDS011;35290;39.550;8.786;2022-11-20T07:01:10;36.15;;;14.75;;
49416;SDS011;35290;39.550;8.786;2022-11-20T07:03:36;27.10;;;11.57;;
49416;SDS011;35290;39.550;8.786;2022-11-20T07:06:02;31.50;;;10.90;;
49416;SDS011;35290;39.550;8.786;2022-11-20T07:08:28;22.38;;;8.48;;
49416;SDS011;35290;39.550;8.786;2022-11-20T07:10:58;14.90;;;5.18;;
49416;SDS011;35290;39.550;8.786;2022-11-20T07:13:25;21.33;;;4.13;;
49416;SDS011;35290;39.550;8.786;2022-11-20T07:15:51;20.35;;;2.58;;
49416;SDS011;35290;39.550;8.786;2022-11-20T07:18:17;17.77;;;2.85;;
49416;SDS011;35290;39.550;8.786;2022-11-20T07:20:43;12.50;;;2.30;;
49416;SDS011;35290;39.550;8.786;2022-11-20T07:23:08;12.95;;;2.08;;
49416;SDS011;35290;39.550;8.786;2022-11-20T07:25:36;18.27;;;2.95;;
49416;SDS011;35290;39.550;8.786;2022-11-20T07:28:02;15.00;;;2.65;;
49416;SDS011;35290;39.550;8.786;2022-11-20T07:30:28;23.65;;;2.72;;
49416;SDS011;35290;39.550;8.786;2022-11-20T07:32:55;19.33;;;3.20;;
49416;SDS011;35290;39.550;8.786;2022-11-20T07:35:22;13.82;;;2.35;;
49416;SDS011;35290;39.550;8.786;2022-11-20T07:37:48;17.02;;;2.63;;
49416;SDS011;35290;39.550;8.786;2022-11-20T07:40:14;14.25;;;2.45;;
49416;SDS011;35290;39.550;8.786;2022-11-20T07:45:16;17.23;;;2.70;;
49416;SDS011;35290;39.550;8.786;2022-11-20T07:47:42;24.77;;;3.03;;
49416;SDS011;35290;39.550;8.786;2022-11-20T07:50:07;18.83;;;2.83;;
49416;SDS011;35290;39.550;8.786;2022-11-20T07:52:33;14.18;;;2.53;;
49416;SDS011;35290;39.550;8.786;2022-11-20T07:54:59;14.57;;;3.55;;
49416;SDS011;35290;39.550;8.786;2022-11-20T07:57:25;18.10;;;4.50;;
49416;SDS011;35290;39.550;8.786;2022-11-20T07:59:50;17.83;;;5.20;;
49416;SDS011;35290;39.550;8.786;2022-11-20T08:02:16;19.73;;;4.70;;
49416;SDS011;35290;39.550;8.786;2022-11-20T08:04:42;17.90;;;3.97;;
49416;SDS011;35290;39.550;8.786;2022-11-20T08:07:10;16.40;;;3.50;;
49416;SDS011;35290;39.550;8.786;2022-11-20T08:09:35;14.90;;;2.85;;
49416;SDS011;35290;39.550;8.786;2022-11-20T08:12:01;13.20;;;2.85;;
49416;SDS011;35290;39.550;8.786;2022-11-20T08:14:45;17.55;;;2.20;;
49416;SDS011;35290;39.550;8.786;2022-11-20T08:17:11;17.38;;;2.45;;
49416;SDS011;35290;39.550;8.786;2022-11-20T08:19:37;13.57;;;2.28;;
49416;SDS011;35290;39.550;8.786;2022-11-20T08:22:02;16.65;;;1.98;;
49416;SDS011;35290;39.550;8.786;2022-11-20T08:24:28;13.50;;;2.10;;
49416;SDS011;35290;39.550;8.786;2022-11-20T08:26:53;15.63;;;2.17;;
49416;SDS011;35290;39.550;8.786;2022-11-20T08:29:19;14.90;;;2.95;;
49416;SDS011;35290;39.550;8.786;2022-11-20T08:31:44;17.20;;;2.03;;
49416;SDS011;35290;39.550;8.786;2022-11-20T08:34:10;16.55;;;2.20;;
49416;SDS011;35290;39.550;8.786;2022-11-20T08:36:36;11.48;;;2.10;;
49416;SDS011;35290;39.550;8.786;2022-11-20T08:39:02;14.90;;;2.38;;
49416;SDS011;35290;39.550;8.786;2022-11-20T08:41:28;13.95;;;2.25;;
49416;SDS011;35290;39.550;8.786;2022-11-20T08:43:59;20.67;;;2.85;;
49416;SDS011;35290;39.550;8.786;2022-11-20T08:46:27;14.55;;;1.92;;
49416;SDS011;35290;39.550;8.786;2022-11-20T08:48:58;14.05;;;3.20;;
49416;SDS011;35290;39.550;8.786;2022-11-20T08:51:23;19.88;;;3.88;;
49416;SDS011;35290;39.550;8.786;2022-11-20T08:53:49;12.07;;;2.25;;
49416;SDS011;35290;39.550;8.786;2022-11-20T08:56:14;11.23;;;2.45;;
49416;SDS011;35290;39.550;8.786;2022-11-20T08:58:40;20.55;;;3.30;;
49416;SDS011;35290;39.550;8.786;2022-11-20T09:01:06;18.13;;;7.38;;
49416;SDS011;35290;39.550;8.786;2022-11-20T09:03:32;28.80;;;15.15;;
49416;SDS011;35290;39.550;8.786;2022-11-20T09:06:01;26.05;;;9.60;;
49416;SDS011;35290;39.550;8.786;2022-11-20T09:08:29;26.45;;;14.93;;
49416;SDS011;35290;39.550;8.786;2022-11-20T09:10:56;22.23;;;6.45;;
49416;SDS011;35290;39.550;8.786;2022-11-20T09:13:22;18.00;;;4.10;;
49416;SDS011;35290;39.550;8.786;2022-11-20T09:15:53;15.88;;;4.07;;
49416;SDS011;35290;39.550;8.786;2022-11-20T09:18:19;16.98;;;2.88;;
49416;SDS011;35290;39.550;8.786;2022-11-20T09:20:46;21.67;;;4.63;;
49416;SDS011;35290;39.550;8.786;2022-11-20T09:23:12;13.55;;;3.70;;
49416;SDS011;35290;39.550;8.786;2022-11-20T09:25:37;48.05;;;22.88;;
49416;SDS011;35290;39.550;8.786;2022-11-20T09:28:03;31.65;;;14.85;;
49416;SDS011;35290;39.550;8.786;2022-11-20T09:30:28;17.83;;;6.63;;
49416;SDS011;35290;39.550;8.786;2022-11-20T09:32:54;17.25;;;3.92;;
49416;SDS011;35290;39.550;8.786;2022-11-20T09:35:19;13.88;;;2.45;;
49416;SDS011;35290;39.550;8.786;2022-11-20T09:37:45;15.77;;;4.10;;
49416;SDS011;35290;39.550;8.786;2022-11-20T09:40:17;16.55;;;3.50;;
49416;SDS011;35290;39.550;8.786;2022-11-20T09:56:24;9.10;;;2.47;;
49416;SDS011;35290;39.550;8.786;2022-11-20T09:58:51;14.35;;;2.13;;
49416;SDS011;35290;39.550;8.786;2022-11-20T10:01:18;13.90;;;2.80;;
49416;SDS011;35290;39.550;8.786;2022-11-20T10:03:57;10.48;;;2.03;;
49416;SDS011;35290;39.550;8.786;2022-11-20T10:06:49;13.50;;;2.30;;
49416;SDS011;35290;39.550;8.786;2022-11-20T10:14:26;16.95;;;4.28;;
49416;SDS011;35290;39.550;8.786;2022-11-20T10:25:14;14.77;;;4.43;;
49416;SDS011;35290;39.550;8.786;2022-11-20T10:30:21;14.90;;;3.80;;
49416;SDS011;35290;39.550;8.786;2022-11-20T10:35:37;18.95;;;3.65;;
49416;SDS011;35290;39.550;8.786;2022-11-20T10:40:36;13.38;;;3.08;;
49416;SDS011;35290;39.550;8.786;2022-11-20T10:43:13;14.30;;;3.10;;
49416;SDS011;35290;39.550;8.786;2022-11-20T10:48:26;11.75;;;2.47;;
49416;SDS011;35290;39.550;8.786;2022-11-20T10:59:11;13.90;;;3.03;;
49416;SDS011;35290;39.550;8.786;2022-11-20T11:01:56;20.02;;;3.25;;
49416;SDS011;35290;39.550;8.786;2022-11-20T11:04:33;18.85;;;3.63;;
49416;SDS011;35290;39.550;8.786;2022-11-20T11:07:08;14.70;;;3.97;;
49416;SDS011;35290;39.550;8.786;2022-11-20T11:09:38;13.90;;;2.83;;
49416;SDS011;35290;39.550;8.786;2022-11-20T11:12:07;18.75;;;3.55;;
49416;SDS011;35290;39.550;8.786;2022-11-20T11:14:44;12.07;;;3.15;;
49416;SDS011;35290;39.550;8.786;2022-11-20T11:20:16;15.05;;;3.78;;
49416;SDS011;35290;39.550;8.786;2022-11-20T11:22:50;17.30;;;2.85;;
49416;SDS011;35290;39.550;8.786;2022-11-20T11:25:32;18.85;;;3.40;;
49416;SDS011;35290;39.550;8.786;2022-11-20T11:28:01;15.85;;;3.45;;
49416;SDS011;35290;39.550;8.786;2022-11-20T11:30:28;19.35;;;3.10;;
49416;SDS011;35290;39.550;8.786;2022-11-20T11:33:06;17.58;;;3.13;;
49416;SDS011;35290;39.550;8.786;2022-11-20T11:35:38;15.48;;;3.03;;
49416;SDS011;35290;39.550;8.786;2022-11-20T11:38:21;14.20;;;3.00;;
49416;SDS011;35290;39.550;8.786;2022-11-20T11:40:48;15.55;;;2.47;;
49416;SDS011;35290;39.550;8.786;2022-11-20T11:43:21;18.05;;;3.80;;
49416;SDS011;35290;39.550;8.786;2022-11-20T11:46:21;21.52;;;3.58;;
49416;SDS011;35290;39.550;8.786;2022-11-20T11:51:36;17.73;;;2.80;;
49416;SDS011;35290;39.550;8.786;2022-11-20T11:54:06;16.00;;;2.78;;
49416;SDS011;35290;39.550;8.786;2022-11-20T11:56:40;18.85;;;2.85;;
49416;SDS011;35290;39.550;8.786;2022-11-20T11:59:06;16.30;;;3.20;;
49416;SDS011;35290;39.550;8.786;2022-11-20T12:06:43;17.20;;;3.63;;
49416;SDS011;35290;39.550;8.786;2022-11-20T12:09:12;23.15;;;3.03;;
49416;SDS011;35290;39.550;8.786;2022-11-20T12:12:01;22.25;;;3.80;;
49416;SDS011;35290;39.550;8.786;2022-11-20T12:14:37;19.77;;;3.28;;
49416;SDS011;35290;39.550;8.786;2022-11-20T12:17:17;18.58;;;2.90;;
49416;SDS011;35290;39.550;8.786;2022-11-20T12:19:51;21.23;;;3.50;;
49416;SDS011;35290;39.550;8.786;2022-11-20T12:22:31;16.98;;;3.83;;
49416;SDS011;35290;39.550;8.786;2022-11-20T12:27:47;12.10;;;3.80;;
49416;SDS011;35290;39.550;8.786;2022-11-20T12:30:17;11.80;;;3.63;;
49416;SDS011;35290;39.550;8.786;2022-11-20T12:32:54;14.10;;;3.50;;
49416;SDS011;35290;39.550;8.786;2022-11-20T12:47:11;10.65;;;2.25;;
49416;SDS011;35290;39.550;8.786;2022-11-20T12:52:56;9.60;;;2.70;;
49416;SDS011;35290;39.550;8.786;2022-11-20T12:55:45;12.27;;;2.80;;
49416;SDS011;35290;39.550;8.786;2022-11-20T13:04:44;10.52;;;2.40;;
49416;SDS011;35290;39.550;8.786;2022-11-20T13:07:12;11.95;;;1.92;;
49416;SDS011;35290;39.550;8.786;2022-11-20T13:09:43;10.48;;;2.70;;
49416;SDS011;35290;39.550;8.786;2022-11-20T13:12:20;12.20;;;4.00;;
49416;SDS011;35290;39.550;8.786;2022-11-20T13:17:59;11.27;;;2.42;;
49416;SDS011;35290;39.550;8.786;2022-11-20T13:20:26;9.32;;;2.20;;
49416;SDS011;35290;39.550;8.786;2022-11-20T13:22:53;9.57;;;1.40;;
49416;SDS011;35290;39.550;8.786;2022-11-20T13:27:59;8.80;;;2.03;;
49416;SDS011;35290;39.550;8.786;2022-11-20T13:30:26;13.85;;;2.38;;
49416;SDS011;35290;39.550;8.786;2022-11-20T13:32:56;11.82;;;2.63;;
49416;SDS011;35290;39.550;8.786;2022-11-20T13:35:42;11.55;;;3.17;;
49416;SDS011;35290;39.550;8.786;2022-11-20T13:38:19;13.48;;;4.22;;
49416;SDS011;35290;39.550;8.786;2022-11-20T13:40:57;12.57;;;4.65;;
49416;SDS011;35290;39.550;8.786;2022-11-20T13:43:44;13.60;;;4.63;;
49416;SDS011;35290;39.550;8.786;2022-11-20T13:46:12;10.90;;;4.57;;
49416;SDS011;35290;39.550;8.786;2022-11-20T13:48:39;13.93;;;4.93;;
49416;SDS011;35290;39.550;8.786;2022-11-20T13:57:03;14.10;;;2.50;;
49416;SDS011;35290;39.550;8.786;2022-11-20T14:14:04;10.00;;;3.58;;
49416;SDS011;35290;39.550;8.786;2022-11-20T14:16:38;11.18;;;2.90;;
49416;SDS011;35290;39.550;8.786;2022-11-20T14:21:54;12.60;;;2.60;;
49416;SDS011;35290;39.550;8.786;2022-11-20T14:24:33;8.88;;;2.33;;
49416;SDS011;35290;39.550;8.786;2022-11-20T14:26:58;10.73;;;2.55;;
49416;SDS011;35290;39.550;8.786;2022-11-20T14:29:26;13.77;;;2.63;;
49416;SDS011;35290;39.550;8.786;2022-11-20T14:31:55;7.78;;;2.58;;
49416;SDS011;35290;39.550;8.786;2022-11-20T14:34:23;10.52;;;2.88;;
49416;SDS011;35290;39.550;8.786;2022-11-20T14:36:55;15.30;;;2.90;;
49416;SDS011;35290;39.550;8.786;2022-11-20T14:39:36;17.75;;;3.10;;
49416;SDS011;35290;39.550;8.786;2022-11-20T14:42:10;15.68;;;2.78;;
49416;SDS011;35290;39.550;8.786;2022-11-20T14:44:40;11.57;;;2.38;;
49416;SDS011;35290;39.550;8.786;2022-11-20T14:47:06;16.15;;;2.28;;
49416;SDS011;35290;39.550;8.786;2022-11-20T14:49:33;17.70;;;2.95;;
49416;SDS011;35290;39.550;8.786;2022-11-20T14:52:01;17.75;;;2.35;;
49416;SDS011;35290;39.550;8.786;2022-11-20T14:54:34;17.27;;;2.95;;
49416;SDS011;35290;39.550;8.786;2022-11-20T14:59:50;16.70;;;2.95;;
49416;SDS011;35290;39.550;8.786;2022-11-20T15:02:16;19.27;;;2.45;;
49416;SDS011;35290;39.550;8.786;2022-11-20T15:04:48;16.15;;;3.25;;
49416;SDS011;35290;39.550;8.786;2022-11-20T15:07:27;16.73;;;3.45;;
49416;SDS011;35290;39.550;8.786;2022-11-20T15:10:02;17.67;;;3.92;;
49416;SDS011;35290;39.550;8.786;2022-11-20T15:12:32;17.45;;;3.92;;
49416;SDS011;35290;39.550;8.786;2022-11-20T15:15:02;16.25;;;3.65;;
49416;SDS011;35290;39.550;8.786;2022-11-20T15:17:30;15.20;;;3.63;;
49416;SDS011;35290;39.550;8.786;2022-11-20T15:19:56;18.92;;;3.13;;
49416;SDS011;35290;39.550;8.786;2022-11-20T15:22:21;16.15;;;3.70;;
49416;SDS011;35290;39.550;8.786;2022-11-20T15:24:47;19.38;;;3.20;;
49416;SDS011;35290;39.550;8.786;2022-11-20T15:27:12;16.77;;;3.60;;
49416;SDS011;35290;39.550;8.786;2022-11-20T15:29:38;17.50;;;2.70;;
49416;SDS011;35290;39.550;8.786;2022-11-20T15:32:03;15.93;;;3.10;;
49416;SDS011;35290;39.550;8.786;2022-11-20T15:34:29;17.85;;;3.35;;
49416;SDS011;35290;39.550;8.786;2022-11-20T15:36:55;16.83;;;4.35;;
49416;SDS011;35290;39.550;8.786;2022-11-20T15:39:20;13.35;;;2.92;;
49416;SDS011;35290;39.550;8.786;2022-11-20T15:41:46;22.00;;;3.20;;
49416;SDS011;35290;39.550;8.786;2022-11-20T15:44:12;19.63;;;2.67;;
49416;SDS011;35290;39.550;8.786;2022-11-20T15:46:38;37.97;;;15.02;;
49416;SDS011;35290;39.550;8.786;2022-11-20T15:49:10;41.88;;;12.20;;
49416;SDS011;35290;39.550;8.786;2022-11-20T15:51:38;36.80;;;13.60;;
49416;SDS011;35290;39.550;8.786;2022-11-20T15:54:12;26.40;;;4.47;;
49416;SDS011;35290;39.550;8.786;2022-11-20T15:56:38;16.52;;;3.42;;
49416;SDS011;35290;39.550;8.786;2022-11-20T15:59:04;19.58;;;3.00;;
49416;SDS011;35290;39.550;8.786;2022-11-20T16:01:30;20.67;;;3.30;;
49416;SDS011;35290;39.550;8.786;2022-11-20T16:03:55;25.50;;;2.95;;
49416;SDS011;35290;39.550;8.786;2022-11-20T16:06:21;21.77;;;2.97;;
49416;SDS011;35290;39.550;8.786;2022-11-20T16:08:46;21.17;;;3.10;;
49416;SDS011;35290;39.550;8.786;2022-11-20T16:11:12;11.50;;;2.33;;
49416;SDS011;35290;39.550;8.786;2022-11-20T16:13:39;20.63;;;2.70;;
49416;SDS011;35290;39.550;8.786;2022-11-20T16:16:25;24.50;;;3.90;;
49416;SDS011;35290;39.550;8.786;2022-11-20T16:18:58;17.33;;;2.70;;
49416;SDS011;35290;39.550;8.786;2022-11-20T16:21:25;15.70;;;2.47;;
49416;SDS011;35290;39.550;8.786;2022-11-20T16:23:59;25.90;;;3.78;;
49416;SDS011;35290;39.550;8.786;2022-11-20T16:26:28;17.92;;;4.07;;
49416;SDS011;35290;39.550;8.786;2022-11-20T16:29:04;15.73;;;3.05;;
49416;SDS011;35290;39.550;8.786;2022-11-20T16:31:30;14.82;;;2.97;;
49416;SDS011;35290;39.550;8.786;2022-11-20T16:33:57;19.63;;;4.03;;
49416;SDS011;35290;39.550;8.786;2022-11-20T16:36:24;20.75;;;3.17;;
49416;SDS011;35290;39.550;8.786;2022-11-20T16:38:56;16.60;;;3.30;;
49416;SDS011;35290;39.550;8.786;2022-11-20T16:41:23;19.95;;;3.60;;
49416;SDS011;35290;39.550;8.786;2022-11-20T16:43:52;23.38;;;4.13;;